Sunday, February 17, 2019, 4:01 PM EST
Back to Local

KHPN, White Plains Westchester

Location: Greenwich, NY, United States Lat: 41.067
Local Time: 4:01 PM EST (21:01 GMT) Lon: -73.7
Time Zone: US/Eastern Elev: 439 ft

Show me the last for .
Show Decoded

2019-02-17 14:56 METAR KHPN 171956Z 16005KT 10SM CLR 01/M11 A3004 RMK AO2 SLP181 T00111111 =
2019-02-17 13:56 METAR KHPN 171856Z VRB06KT 10SM CLR 01/M11 A3008 RMK AO2 SLP194 T00111106 =
2019-02-17 12:56 METAR KHPN 171756Z 20006KT 10SM CLR 02/M11 A3011 RMK AO2 SLP206 T00221111 10022
                 21056 55003 =
2019-02-17 11:56 METAR KHPN 171656Z 35003KT 10SM CLR 01/M12 A3006 RMK AO2 PRESFR SLP188 T00061117
                 =
2019-02-17 10:56 METAR KHPN 171556Z VRB04KT 10SM CLR 00/M11 A3011 RMK AO2 SLP206 T00001111 =
2019-02-17 09:56 METAR KHPN 171456Z VRB06KT 10SM CLR M01/M11 A3012 RMK AO2 PRESFR SLP209
                 T10111106 50014 =
2019-02-17 08:56 METAR KHPN 171356Z 02007KT 10SM CLR M03/M11 A3014 RMK AO2 SLP216 T10281111 =
2019-02-17 07:56 METAR KHPN 171256Z 01009KT 10SM CLR M04/M12 A3012 RMK AO2 SLP208 T10391117 =
2019-02-17 06:56 METAR KHPN 171156Z 35008KT 10SM CLR M06/M12 A3008 RMK AO2 SLP196 T10561117 11033
                 21056 53014 =
2019-02-17 05:56 METAR KHPN 171056Z 35008KT 10SM CLR M05/M12 A3005 RMK AO2 SLP186 T10501117 =
2019-02-17 04:56 METAR KHPN 170956Z 35012KT 10SM CLR M05/M11 A3005 RMK AO2 SLP185 T10501111 =
2019-02-17 03:56 METAR KHPN 170856Z 33012KT 10SM CLR M05/M11 A3004 RMK AO2 SLP181 T10501106 55001
                 =
2019-02-17 02:56 METAR KHPN 170756Z 35010KT 10SM FEW030 M04/M11 A3002 RMK AO2 SLP174 T10441111 =
2019-02-17 01:56 METAR KHPN 170656Z 35010KT 10SM FEW030 M04/M11 A3003 RMK AO2 SLP178 T10391111 =
2019-02-17 00:56 METAR KHPN 170556Z 35010KT 10SM FEW030 M03/M11 A3004 RMK AO2 SLP182 T10331111
                 10017 21033 51020 =
2019-02-16 23:56 METAR KHPN 170456Z 01008KT 10SM CLR M03/M12 A3003 RMK AO2 SLP179 T10281117
                 400671028 =
2019-02-16 22:56 METAR KHPN 170356Z 35009KT 10SM CLR M02/M11 A3000 RMK AO2 SLP168 T10221106 =
2019-02-16 21:56 METAR KHPN 170256Z 01005KT 10SM CLR M01/M10 A2998 RMK AO2 SLP161 T10111100 51028
                 =
2019-02-16 20:56 METAR KHPN 170156Z 33005KT 10SM CLR M01/M09 A2996 RMK AO2 SLP153 T10111089 =
2019-02-16 19:56 METAR KHPN 170056Z 36006KT 10SM CLR 01/M09 A2993 RMK AO2 SLP142 T00061089 =
2019-02-16 18:56 METAR KHPN 162356Z 31007KT 10SM CLR 02/M08 A2990 RMK AO2 SLP132 T00171083 10050
                 20017 51022 =
2019-02-16 17:56 METAR KHPN 162256Z 32009KT 10SM CLR 02/M08 A2988 RMK AO2 SLP127 T00221083 =
2019-02-16 16:56 METAR KHPN 162156Z 31011KT 10SM CLR 03/M08 A2985 RMK AO2 SLP115 T00331083 =

Support USWX by starting your Amazon purchase here.